sensor_id;sensor_type;location;lat;lon;timestamp;P1;durP1;ratioP1;P2;durP2;ratioP2
10452;SDS011;5274;51.992;8.518;2023-07-28T00:00:50;57.65;;;53.55;;
10452;SDS011;5274;51.992;8.518;2023-07-28T00:03:16;59.85;;;55.45;;
10452;SDS011;5274;51.992;8.518;2023-07-28T00:05:42;59.53;;;55.13;;
10452;SDS011;5274;51.992;8.518;2023-07-28T00:08:08;58.17;;;53.92;;
10452;SDS011;5274;51.992;8.518;2023-07-28T00:10:34;58.75;;;54.17;;
10452;SDS011;5274;51.992;8.518;2023-07-28T00:13:05;60.65;;;56.05;;
10452;SDS011;5274;51.992;8.518;2023-07-28T00:15:31;60.80;;;56.30;;
10452;SDS011;5274;51.992;8.518;2023-07-28T00:17:56;59.35;;;55.05;;
10452;SDS011;5274;51.992;8.518;2023-07-28T00:20:24;59.88;;;55.42;;
10452;SDS011;5274;51.992;8.518;2023-07-28T00:22:51;60.15;;;55.75;;
10452;SDS011;5274;51.992;8.518;2023-07-28T00:25:17;60.78;;;56.08;;
10452;SDS011;5274;51.992;8.518;2023-07-28T00:27:43;59.97;;;55.38;;
10452;SDS011;5274;51.992;8.518;2023-07-28T00:30:09;59.72;;;55.28;;
10452;SDS011;5274;51.992;8.518;2023-07-28T00:32:36;58.63;;;54.13;;
10452;SDS011;5274;51.992;8.518;2023-07-28T00:35:02;57.90;;;53.13;;
10452;SDS011;5274;51.992;8.518;2023-07-28T00:37:28;59.08;;;54.10;;
10452;SDS011;5274;51.992;8.518;2023-07-28T00:39:54;60.15;;;55.30;;
10452;SDS011;5274;51.992;8.518;2023-07-28T00:42:20;59.83;;;55.03;;
10452;SDS011;5274;51.992;8.518;2023-07-28T00:44:45;59.58;;;54.92;;
10452;SDS011;5274;51.992;8.518;2023-07-28T00:47:11;59.65;;;54.78;;
10452;SDS011;5274;51.992;8.518;2023-07-28T00:49:38;59.55;;;54.53;;
10452;SDS011;5274;51.992;8.518;2023-07-28T00:52:06;60.88;;;56.08;;
10452;SDS011;5274;51.992;8.518;2023-07-28T00:54:33;63.17;;;58.22;;
10452;SDS011;5274;51.992;8.518;2023-07-28T00:56:59;64.60;;;59.45;;
10452;SDS011;5274;51.992;8.518;2023-07-28T00:59:25;63.45;;;58.25;;
10452;SDS011;5274;51.992;8.518;2023-07-28T01:01:51;62.92;;;57.47;;
10452;SDS011;5274;51.992;8.518;2023-07-28T01:04:17;62.13;;;57.13;;
10452;SDS011;5274;51.992;8.518;2023-07-28T01:06:47;62.50;;;57.45;;
10452;SDS011;5274;51.992;8.518;2023-07-28T01:09:18;63.33;;;57.97;;
10452;SDS011;5274;51.992;8.518;2023-07-28T01:11:55;63.42;;;57.85;;
10452;SDS011;5274;51.992;8.518;2023-07-28T01:14:22;61.95;;;56.80;;
10452;SDS011;5274;51.992;8.518;2023-07-28T01:16:48;63.03;;;57.60;;
10452;SDS011;5274;51.992;8.518;2023-07-28T01:19:15;62.22;;;56.92;;
10452;SDS011;5274;51.992;8.518;2023-07-28T01:21:42;62.53;;;57.40;;
10452;SDS011;5274;51.992;8.518;2023-07-28T01:24:21;54.03;;;50.03;;
10452;SDS011;5274;51.992;8.518;2023-07-28T01:26:49;52.60;;;48.83;;
10452;SDS011;5274;51.992;8.518;2023-07-28T01:29:16;51.53;;;47.72;;
10452;SDS011;5274;51.992;8.518;2023-07-28T01:31:44;49.25;;;45.70;;
10452;SDS011;5274;51.992;8.518;2023-07-28T01:34:11;52.33;;;48.63;;
10452;SDS011;5274;51.992;8.518;2023-07-28T01:36:37;50.67;;;47.22;;
10452;SDS011;5274;51.992;8.518;2023-07-28T01:39:03;51.28;;;47.47;;
10452;SDS011;5274;51.992;8.518;2023-07-28T01:41:29;50.80;;;47.05;;
10452;SDS011;5274;51.992;8.518;2023-07-28T01:43:55;51.95;;;48.22;;
10452;SDS011;5274;51.992;8.518;2023-07-28T01:46:21;50.95;;;47.35;;
10452;SDS011;5274;51.992;8.518;2023-07-28T01:48:47;50.80;;;47.15;;
10452;SDS011;5274;51.992;8.518;2023-07-28T01:51:13;51.38;;;47.65;;
10452;SDS011;5274;51.992;8.518;2023-07-28T01:53:39;52.10;;;48.25;;
10452;SDS011;5274;51.992;8.518;2023-07-28T01:56:05;49.60;;;46.13;;
10452;SDS011;5274;51.992;8.518;2023-07-28T01:58:31;48.97;;;45.67;;
10452;SDS011;5274;51.992;8.518;2023-07-28T02:00:56;49.22;;;45.72;;
10452;SDS011;5274;51.992;8.518;2023-07-28T02:03:22;48.72;;;45.13;;
10452;SDS011;5274;51.992;8.518;2023-07-28T02:05:48;49.22;;;45.83;;
10452;SDS011;5274;51.992;8.518;2023-07-28T02:08:14;51.85;;;48.08;;
10452;SDS011;5274;51.992;8.518;2023-07-28T02:10:40;49.20;;;45.97;;
10452;SDS011;5274;51.992;8.518;2023-07-28T02:13:06;50.88;;;47.38;;
10452;SDS011;5274;51.992;8.518;2023-07-28T02:15:32;52.50;;;49.10;;
10452;SDS011;5274;51.992;8.518;2023-07-28T02:17:58;53.03;;;49.47;;
10452;SDS011;5274;51.992;8.518;2023-07-28T02:20:24;52.30;;;48.90;;
10452;SDS011;5274;51.992;8.518;2023-07-28T02:22:50;48.45;;;45.35;;
10452;SDS011;5274;51.992;8.518;2023-07-28T02:25:16;47.03;;;44.03;;
10452;SDS011;5274;51.992;8.518;2023-07-28T02:27:42;46.45;;;43.25;;
10452;SDS011;5274;51.992;8.518;2023-07-28T02:30:08;47.40;;;43.90;;
10452;SDS011;5274;51.992;8.518;2023-07-28T02:32:35;47.55;;;44.45;;
10452;SDS011;5274;51.992;8.518;2023-07-28T02:35:01;49.30;;;46.03;;
10452;SDS011;5274;51.992;8.518;2023-07-28T02:37:27;48.55;;;44.95;;
10452;SDS011;5274;51.992;8.518;2023-07-28T02:39:53;47.65;;;44.55;;
10452;SDS011;5274;51.992;8.518;2023-07-28T02:42:19;49.85;;;46.45;;
10452;SDS011;5274;51.992;8.518;2023-07-28T02:44:45;50.30;;;46.90;;
10452;SDS011;5274;51.992;8.518;2023-07-28T02:47:11;50.40;;;47.00;;
10452;SDS011;5274;51.992;8.518;2023-07-28T02:49:37;48.15;;;45.03;;
10452;SDS011;5274;51.992;8.518;2023-07-28T02:52:02;50.30;;;46.90;;
10452;SDS011;5274;51.992;8.518;2023-07-28T02:54:29;48.65;;;45.45;;
10452;SDS011;5274;51.992;8.518;2023-07-28T02:56:55;49.60;;;46.20;;
10452;SDS011;5274;51.992;8.518;2023-07-28T02:59:21;51.10;;;47.63;;
10452;SDS011;5274;51.992;8.518;2023-07-28T03:01:48;51.58;;;48.28;;
10452;SDS011;5274;51.992;8.518;2023-07-28T03:04:16;50.60;;;47.30;;
10452;SDS011;5274;51.992;8.518;2023-07-28T03:06:43;50.28;;;46.78;;
10452;SDS011;5274;51.992;8.518;2023-07-28T03:09:09;50.35;;;46.70;;
10452;SDS011;5274;51.992;8.518;2023-07-28T03:11:36;49.97;;;46.60;;
10452;SDS011;5274;51.992;8.518;2023-07-28T03:14:02;52.10;;;48.38;;
10452;SDS011;5274;51.992;8.518;2023-07-28T03:16:28;49.00;;;45.22;;
10452;SDS011;5274;51.992;8.518;2023-07-28T03:18:54;49.67;;;46.25;;
10452;SDS011;5274;51.992;8.518;2023-07-28T03:21:20;47.58;;;44.47;;
10452;SDS011;5274;51.992;8.518;2023-07-28T03:23:45;49.05;;;45.80;;
10452;SDS011;5274;51.992;8.518;2023-07-28T03:26:11;49.05;;;45.53;;
10452;SDS011;5274;51.992;8.518;2023-07-28T03:28:37;46.45;;;43.35;;
10452;SDS011;5274;51.992;8.518;2023-07-28T03:31:03;46.70;;;43.53;;
10452;SDS011;5274;51.992;8.518;2023-07-28T03:33:30;49.20;;;45.70;;
10452;SDS011;5274;51.992;8.518;2023-07-28T03:35:55;49.17;;;45.58;;
10452;SDS011;5274;51.992;8.518;2023-07-28T03:38:21;51.72;;;47.90;;
10452;SDS011;5274;51.992;8.518;2023-07-28T03:40:49;51.78;;;48.30;;
10452;SDS011;5274;51.992;8.518;2023-07-28T03:43:15;51.42;;;47.95;;
10452;SDS011;5274;51.992;8.518;2023-07-28T03:45:41;59.17;;;54.47;;
10452;SDS011;5274;51.992;8.518;2023-07-28T03:48:07;60.00;;;55.00;;
10452;SDS011;5274;51.992;8.518;2023-07-28T03:50:33;56.90;;;52.20;;
10452;SDS011;5274;51.992;8.518;2023-07-28T03:52:58;58.20;;;53.55;;
10452;SDS011;5274;51.992;8.518;2023-07-28T03:55:24;58.85;;;54.25;;
10452;SDS011;5274;51.992;8.518;2023-07-28T03:57:50;60.42;;;55.63;;
10452;SDS011;5274;51.992;8.518;2023-07-28T04:00:16;60.28;;;55.38;;
10452;SDS011;5274;51.992;8.518;2023-07-28T04:02:42;60.28;;;55.42;;
10452;SDS011;5274;51.992;8.518;2023-07-28T04:05:08;60.70;;;55.70;;
10452;SDS011;5274;51.992;8.518;2023-07-28T04:07:34;62.03;;;57.25;;
10452;SDS011;5274;51.992;8.518;2023-07-28T04:10:00;59.92;;;55.08;;
10452;SDS011;5274;51.992;8.518;2023-07-28T04:12:26;60.92;;;55.92;;
10452;SDS011;5274;51.992;8.518;2023-07-28T04:14:52;60.88;;;56.10;;
10452;SDS011;5274;51.992;8.518;2023-07-28T04:17:18;59.63;;;54.72;;
10452;SDS011;5274;51.992;8.518;2023-07-28T04:19:44;62.95;;;57.72;;
10452;SDS011;5274;51.992;8.518;2023-07-28T04:22:10;65.70;;;59.40;;
10452;SDS011;5274;51.992;8.518;2023-07-28T04:24:36;65.25;;;59.85;;
10452;SDS011;5274;51.992;8.518;2023-07-28T04:27:02;63.53;;;58.33;;
10452;SDS011;5274;51.992;8.518;2023-07-28T04:29:28;61.60;;;56.60;;
10452;SDS011;5274;51.992;8.518;2023-07-28T04:31:54;61.50;;;56.63;;
10452;SDS011;5274;51.992;8.518;2023-07-28T04:34:20;62.80;;;57.70;;
10452;SDS011;5274;51.992;8.518;2023-07-28T04:36:46;62.63;;;57.72;;
10452;SDS011;5274;51.992;8.518;2023-07-28T04:39:12;61.58;;;56.35;;
10452;SDS011;5274;51.992;8.518;2023-07-28T04:41:37;60.95;;;55.90;;
10452;SDS011;5274;51.992;8.518;2023-07-28T04:44:04;58.92;;;54.38;;
10452;SDS011;5274;51.992;8.518;2023-07-28T04:46:30;60.72;;;55.83;;
10452;SDS011;5274;51.992;8.518;2023-07-28T04:48:56;60.83;;;56.13;;
10452;SDS011;5274;51.992;8.518;2023-07-28T04:51:22;61.08;;;56.15;;
10452;SDS011;5274;51.992;8.518;2023-07-28T04:53:48;61.28;;;56.22;;
10452;SDS011;5274;51.992;8.518;2023-07-28T04:56:14;62.65;;;57.60;;
10452;SDS011;5274;51.992;8.518;2023-07-28T04:58:40;63.17;;;58.20;;
10452;SDS011;5274;51.992;8.518;2023-07-28T05:01:05;63.92;;;58.92;;
10452;SDS011;5274;51.992;8.518;2023-07-28T05:03:34;62.35;;;57.35;;
10452;SDS011;5274;51.992;8.518;2023-07-28T05:05:59;61.60;;;56.78;;
10452;SDS011;5274;51.992;8.518;2023-07-28T05:08:25;60.22;;;55.47;;
10452;SDS011;5274;51.992;8.518;2023-07-28T05:10:51;61.25;;;56.25;;
10452;SDS011;5274;51.992;8.518;2023-07-28T05:13:17;60.13;;;55.22;;
10452;SDS011;5274;51.992;8.518;2023-07-28T05:15:43;59.00;;;54.40;;
10452;SDS011;5274;51.992;8.518;2023-07-28T05:18:09;59.67;;;54.95;;
10452;SDS011;5274;51.992;8.518;2023-07-28T05:20:35;59.97;;;55.05;;
10452;SDS011;5274;51.992;8.518;2023-07-28T05:23:01;59.20;;;54.60;;
10452;SDS011;5274;51.992;8.518;2023-07-28T05:25:27;59.15;;;54.42;;
10452;SDS011;5274;51.992;8.518;2023-07-28T05:27:53;59.05;;;54.45;;
10452;SDS011;5274;51.992;8.518;2023-07-28T05:30:19;59.33;;;54.33;;
10452;SDS011;5274;51.992;8.518;2023-07-28T05:32:45;55.47;;;50.30;;
10452;SDS011;5274;51.992;8.518;2023-07-28T05:35:11;58.30;;;53.50;;
10452;SDS011;5274;51.992;8.518;2023-07-28T05:37:37;55.75;;;51.20;;
10452;SDS011;5274;51.992;8.518;2023-07-28T05:40:03;55.08;;;50.78;;
10452;SDS011;5274;51.992;8.518;2023-07-28T05:42:29;57.63;;;53.15;;
10452;SDS011;5274;51.992;8.518;2023-07-28T05:44:55;59.72;;;55.00;;
10452;SDS011;5274;51.992;8.518;2023-07-28T05:47:21;59.90;;;54.97;;
10452;SDS011;5274;51.992;8.518;2023-07-28T05:49:47;61.17;;;55.88;;
10452;SDS011;5274;51.992;8.518;2023-07-28T05:52:13;60.60;;;55.15;;
10452;SDS011;5274;51.992;8.518;2023-07-28T05:54:39;61.58;;;56.40;;
10452;SDS011;5274;51.992;8.518;2023-07-28T05:57:05;59.78;;;54.88;;
10452;SDS011;5274;51.992;8.518;2023-07-28T05:59:30;59.50;;;54.45;;
10452;SDS011;5274;51.992;8.518;2023-07-28T06:01:56;58.67;;;53.85;;
10452;SDS011;5274;51.992;8.518;2023-07-28T06:04:23;59.17;;;53.83;;
10452;SDS011;5274;51.992;8.518;2023-07-28T06:06:49;60.05;;;55.08;;
10452;SDS011;5274;51.992;8.518;2023-07-28T06:09:15;59.75;;;54.83;;
10452;SDS011;5274;51.992;8.518;2023-07-28T06:11:40;58.08;;;53.28;;
10452;SDS011;5274;51.992;8.518;2023-07-28T06:14:06;61.42;;;56.42;;
10452;SDS011;5274;51.992;8.518;2023-07-28T06:16:32;61.00;;;56.13;;
10452;SDS011;5274;51.992;8.518;2023-07-28T06:18:58;59.00;;;54.17;;
10452;SDS011;5274;51.992;8.518;2023-07-28T06:21:24;63.90;;;58.45;;
10452;SDS011;5274;51.992;8.518;2023-07-28T06:23:50;61.60;;;56.63;;
10452;SDS011;5274;51.992;8.518;2023-07-28T06:26:16;62.00;;;57.08;;
10452;SDS011;5274;51.992;8.518;2023-07-28T06:28:42;57.80;;;53.22;;
10452;SDS011;5274;51.992;8.518;2023-07-28T06:31:08;61.08;;;56.05;;
10452;SDS011;5274;51.992;8.518;2023-07-28T06:33:35;58.30;;;53.55;;
10452;SDS011;5274;51.992;8.518;2023-07-28T06:36:01;60.55;;;55.75;;
10452;SDS011;5274;51.992;8.518;2023-07-28T06:38:27;59.20;;;54.30;;
10452;SDS011;5274;51.992;8.518;2023-07-28T06:40:53;56.67;;;52.22;;
10452;SDS011;5274;51.992;8.518;2023-07-28T06:43:20;59.55;;;54.83;;
10452;SDS011;5274;51.992;8.518;2023-07-28T06:45:46;57.90;;;53.30;;
10452;SDS011;5274;51.992;8.518;2023-07-28T06:48:12;59.58;;;54.80;;
10452;SDS011;5274;51.992;8.518;2023-07-28T06:50:38;59.30;;;54.30;;
10452;SDS011;5274;51.992;8.518;2023-07-28T06:53:04;54.38;;;50.10;;
10452;SDS011;5274;51.992;8.518;2023-07-28T06:55:30;59.15;;;54.35;;
10452;SDS011;5274;51.992;8.518;2023-07-28T06:57:56;58.03;;;53.20;;
10452;SDS011;5274;51.992;8.518;2023-07-28T07:00:22;57.65;;;53.08;;
10452;SDS011;5274;51.992;8.518;2023-07-28T07:02:48;58.60;;;53.95;;
10452;SDS011;5274;51.992;8.518;2023-07-28T07:05:14;55.45;;;50.70;;
10452;SDS011;5274;51.992;8.518;2023-07-28T07:07:40;54.60;;;50.00;;
10452;SDS011;5274;51.992;8.518;2023-07-28T07:10:06;54.83;;;50.63;;
10452;SDS011;5274;51.992;8.518;2023-07-28T07:12:33;53.03;;;48.67;;
10452;SDS011;5274;51.992;8.518;2023-07-28T07:14:59;54.45;;;50.20;;
10452;SDS011;5274;51.992;8.518;2023-07-28T07:17:24;55.30;;;50.90;;
10452;SDS011;5274;51.992;8.518;2023-07-28T07:19:50;54.90;;;50.50;;
10452;SDS011;5274;51.992;8.518;2023-07-28T07:22:16;55.10;;;51.00;;
10452;SDS011;5274;51.992;8.518;2023-07-28T07:24:43;54.22;;;50.13;;
10452;SDS011;5274;51.992;8.518;2023-07-28T07:27:08;55.10;;;50.70;;
10452;SDS011;5274;51.992;8.518;2023-07-28T07:29:38;54.63;;;49.92;;
10452;SDS011;5274;51.992;8.518;2023-07-28T07:32:04;54.47;;;49.97;;
10452;SDS011;5274;51.992;8.518;2023-07-28T07:34:31;46.22;;;43.03;;
10452;SDS011;5274;51.992;8.518;2023-07-28T07:36:57;45.95;;;42.83;;
10452;SDS011;5274;51.992;8.518;2023-07-28T07:39:23;44.00;;;41.00;;
10452;SDS011;5274;51.992;8.518;2023-07-28T07:41:49;44.15;;;41.15;;
10452;SDS011;5274;51.992;8.518;2023-07-28T07:44:15;44.38;;;41.28;;
10452;SDS011;5274;51.992;8.518;2023-07-28T07:46:41;42.63;;;39.72;;
10452;SDS011;5274;51.992;8.518;2023-07-28T07:49:07;43.42;;;40.42;;
10452;SDS011;5274;51.992;8.518;2023-07-28T07:51:33;43.00;;;39.97;;
10452;SDS011;5274;51.992;8.518;2023-07-28T07:53:59;42.88;;;39.85;;
10452;SDS011;5274;51.992;8.518;2023-07-28T07:56:26;39.95;;;37.33;;
10452;SDS011;5274;51.992;8.518;2023-07-28T07:58:52;42.92;;;39.83;;
10452;SDS011;5274;51.992;8.518;2023-07-28T08:01:18;42.00;;;39.40;;
10452;SDS011;5274;51.992;8.518;2023-07-28T08:03:45;43.13;;;40.33;;
10452;SDS011;5274;51.992;8.518;2023-07-28T08:06:10;41.03;;;38.42;;
10452;SDS011;5274;51.992;8.518;2023-07-28T08:08:37;42.75;;;39.95;;
10452;SDS011;5274;51.992;8.518;2023-07-28T08:11:03;32.42;;;30.13;;
10452;SDS011;5274;51.992;8.518;2023-07-28T08:13:29;36.42;;;34.13;;
10452;SDS011;5274;51.992;8.518;2023-07-28T08:15:55;38.20;;;35.60;;
10452;SDS011;5274;51.992;8.518;2023-07-28T08:18:21;36.42;;;33.92;;
10452;SDS011;5274;51.992;8.518;2023-07-28T08:20:48;35.58;;;33.28;;
10452;SDS011;5274;51.992;8.518;2023-07-28T08:23:14;38.38;;;36.05;;
10452;SDS011;5274;51.992;8.518;2023-07-28T08:25:39;38.55;;;36.05;;
10452;SDS011;5274;51.992;8.518;2023-07-28T08:28:06;40.00;;;37.60;;
10452;SDS011;5274;51.992;8.518;2023-07-28T08:30:32;41.88;;;39.38;;
10452;SDS011;5274;51.992;8.518;2023-07-28T08:32:58;41.60;;;39.00;;
10452;SDS011;5274;51.992;8.518;2023-07-28T08:35:24;38.60;;;36.33;;
10452;SDS011;5274;51.992;8.518;2023-07-28T08:37:50;37.65;;;35.47;;
10452;SDS011;5274;51.992;8.518;2023-07-28T08:40:16;39.47;;;37.00;;
10452;SDS011;5274;51.992;8.518;2023-07-28T08:42:42;40.72;;;37.92;;
10452;SDS011;5274;51.992;8.518;2023-07-28T08:45:09;38.08;;;35.47;;
10452;SDS011;5274;51.992;8.518;2023-07-28T08:47:36;37.70;;;35.45;;
10452;SDS011;5274;51.992;8.518;2023-07-28T08:50:02;38.17;;;35.88;;
10452;SDS011;5274;51.992;8.518;2023-07-28T08:52:28;37.20;;;34.88;;
10452;SDS011;5274;51.992;8.518;2023-07-28T08:54:54;41.38;;;38.60;;
10452;SDS011;5274;51.992;8.518;2023-07-28T08:57:20;42.60;;;39.67;;
10452;SDS011;5274;51.992;8.518;2023-07-28T08:59:46;41.67;;;39.38;;
10452;SDS011;5274;51.992;8.518;2023-07-28T09:02:16;41.83;;;39.35;;
10452;SDS011;5274;51.992;8.518;2023-07-28T09:04:42;40.35;;;37.85;;
10452;SDS011;5274;51.992;8.518;2023-07-28T09:07:08;39.58;;;37.47;;
10452;SDS011;5274;51.992;8.518;2023-07-28T09:09:34;35.55;;;33.55;;
10452;SDS011;5274;51.992;8.518;2023-07-28T09:12:02;37.05;;;34.95;;
10452;SDS011;5274;51.992;8.518;2023-07-28T09:14:29;36.65;;;34.65;;
10452;SDS011;5274;51.992;8.518;2023-07-28T09:16:56;35.13;;;33.13;;
10452;SDS011;5274;51.992;8.518;2023-07-28T09:19:31;34.80;;;32.65;;
10452;SDS011;5274;51.992;8.518;2023-07-28T09:21:58;36.45;;;34.35;;
10452;SDS011;5274;51.992;8.518;2023-07-28T09:24:28;37.47;;;35.38;;
10452;SDS011;5274;51.992;8.518;2023-07-28T09:26:56;38.58;;;36.35;;
10452;SDS011;5274;51.992;8.518;2023-07-28T09:29:22;38.28;;;36.17;;
10452;SDS011;5274;51.992;8.518;2023-07-28T09:31:49;38.80;;;36.70;;
10452;SDS011;5274;51.992;8.518;2023-07-28T09:34:25;37.08;;;35.08;;
10452;SDS011;5274;51.992;8.518;2023-07-28T09:36:52;37.47;;;35.47;;
10452;SDS011;5274;51.992;8.518;2023-07-28T09:39:19;38.50;;;36.25;;
10452;SDS011;5274;51.992;8.518;2023-07-28T09:41:45;36.55;;;34.65;;
10452;SDS011;5274;51.992;8.518;2023-07-28T09:44:12;33.67;;;31.77;;
10452;SDS011;5274;51.992;8.518;2023-07-28T09:46:43;35.38;;;33.55;;
10452;SDS011;5274;51.992;8.518;2023-07-28T09:49:13;36.95;;;34.75;;
10452;SDS011;5274;51.992;8.518;2023-07-28T09:51:40;43.75;;;41.35;;
10452;SDS011;5274;51.992;8.518;2023-07-28T09:54:18;41.50;;;39.30;;
10452;SDS011;5274;51.992;8.518;2023-07-28T09:56:50;41.38;;;38.97;;
10452;SDS011;5274;51.992;8.518;2023-07-28T09:59:17;39.72;;;37.53;;
10452;SDS011;5274;51.992;8.518;2023-07-28T10:01:43;39.90;;;37.67;;
10452;SDS011;5274;51.992;8.518;2023-07-28T10:04:10;41.50;;;39.20;;
10452;SDS011;5274;51.992;8.518;2023-07-28T10:06:36;41.28;;;38.90;;
10452;SDS011;5274;51.992;8.518;2023-07-28T10:09:03;40.58;;;38.28;;
10452;SDS011;5274;51.992;8.518;2023-07-28T10:11:30;41.45;;;39.15;;
10452;SDS011;5274;51.992;8.518;2023-07-28T10:13:56;38.45;;;36.25;;
10452;SDS011;5274;51.992;8.518;2023-07-28T10:16:37;37.70;;;35.45;;
10452;SDS011;5274;51.992;8.518;2023-07-28T10:19:04;35.83;;;33.72;;
10452;SDS011;5274;51.992;8.518;2023-07-28T10:21:30;39.00;;;36.70;;
10452;SDS011;5274;51.992;8.518;2023-07-28T10:23:57;40.30;;;37.83;;
10452;SDS011;5274;51.992;8.518;2023-07-28T10:26:36;42.63;;;40.22;;
10452;SDS011;5274;51.992;8.518;2023-07-28T10:29:09;41.53;;;39.10;;
10452;SDS011;5274;51.992;8.518;2023-07-28T10:31:35;41.25;;;38.75;;
10452;SDS011;5274;51.992;8.518;2023-07-28T10:34:01;30.10;;;28.20;;
10452;SDS011;5274;51.992;8.518;2023-07-28T10:39:01;25.60;;;24.10;;
10452;SDS011;5274;51.992;8.518;2023-07-28T10:41:28;24.83;;;23.33;;
10452;SDS011;5274;51.992;8.518;2023-07-28T10:43:55;22.17;;;20.88;;
10452;SDS011;5274;51.992;8.518;2023-07-28T10:46:22;41.15;;;38.65;;
10452;SDS011;5274;51.992;8.518;2023-07-28T10:48:49;37.22;;;35.15;;
10452;SDS011;5274;51.992;8.518;2023-07-28T10:51:22;39.45;;;37.25;;
10452;SDS011;5274;51.992;8.518;2023-07-28T10:53:57;40.13;;;37.70;;
10452;SDS011;5274;51.992;8.518;2023-07-28T10:56:24;35.72;;;33.63;;
10452;SDS011;5274;51.992;8.518;2023-07-28T10:58:57;37.08;;;34.97;;
10452;SDS011;5274;51.992;8.518;2023-07-28T11:01:26;33.03;;;31.13;;
10452;SDS011;5274;51.992;8.518;2023-07-28T11:03:56;33.58;;;31.65;;
10452;SDS011;5274;51.992;8.518;2023-07-28T11:06:22;37.47;;;35.33;;
10452;SDS011;5274;51.992;8.518;2023-07-28T11:08:48;37.25;;;34.70;;
10452;SDS011;5274;51.992;8.518;2023-07-28T11:11:14;35.70;;;33.53;;
10452;SDS011;5274;51.992;8.518;2023-07-28T11:13:40;38.97;;;36.67;;
10452;SDS011;5274;51.992;8.518;2023-07-28T11:16:06;39.35;;;37.05;;
10452;SDS011;5274;51.992;8.518;2023-07-28T11:18:33;34.20;;;32.20;;
10452;SDS011;5274;51.992;8.518;2023-07-28T11:20:59;36.35;;;34.13;;
10452;SDS011;5274;51.992;8.518;2023-07-28T11:23:25;35.97;;;33.50;;
10452;SDS011;5274;51.992;8.518;2023-07-28T11:25:52;38.70;;;36.40;;
10452;SDS011;5274;51.992;8.518;2023-07-28T11:28:19;37.38;;;35.28;;
10452;SDS011;5274;51.992;8.518;2023-07-28T11:30:45;38.28;;;35.97;;
10452;SDS011;5274;51.992;8.518;2023-07-28T11:33:12;37.47;;;35.33;;
10452;SDS011;5274;51.992;8.518;2023-07-28T11:35:39;35.80;;;33.63;;
10452;SDS011;5274;51.992;8.518;2023-07-28T11:38:05;36.78;;;34.45;;
10452;SDS011;5274;51.992;8.518;2023-07-28T11:40:31;39.50;;;37.28;;
10452;SDS011;5274;51.992;8.518;2023-07-28T11:42:58;44.75;;;42.08;;
10452;SDS011;5274;51.992;8.518;2023-07-28T11:45:25;46.08;;;43.45;;
10452;SDS011;5274;51.992;8.518;2023-07-28T11:47:55;47.47;;;44.65;;
10452;SDS011;5274;51.992;8.518;2023-07-28T11:50:25;45.50;;;42.67;;
10452;SDS011;5274;51.992;8.518;2023-07-28T11:52:51;46.22;;;43.33;;
10452;SDS011;5274;51.992;8.518;2023-07-28T11:55:17;50.30;;;47.17;;
10452;SDS011;5274;51.992;8.518;2023-07-28T11:57:44;49.28;;;46.28;;
10452;SDS011;5274;51.992;8.518;2023-07-28T12:00:10;47.85;;;44.65;;
10452;SDS011;5274;51.992;8.518;2023-07-28T12:02:37;47.75;;;44.75;;
10452;SDS011;5274;51.992;8.518;2023-07-28T12:05:11;49.28;;;45.95;;
10452;SDS011;5274;51.992;8.518;2023-07-28T12:07:37;51.20;;;48.00;;
10452;SDS011;5274;51.992;8.518;2023-07-28T12:10:04;51.70;;;48.60;;
10452;SDS011;5274;51.992;8.518;2023-07-28T12:12:38;47.53;;;44.63;;
10452;SDS011;5274;51.992;8.518;2023-07-28T12:15:18;49.70;;;46.63;;
10452;SDS011;5274;51.992;8.518;2023-07-28T12:18:00;49.60;;;46.70;;
10452;SDS011;5274;51.992;8.518;2023-07-28T12:20:26;50.20;;;47.15;;
10452;SDS011;5274;51.992;8.518;2023-07-28T12:22:52;50.70;;;47.55;;
10452;SDS011;5274;51.992;8.518;2023-07-28T12:25:18;49.00;;;46.00;;
10452;SDS011;5274;51.992;8.518;2023-07-28T12:27:44;48.97;;;46.08;;
10452;SDS011;5274;51.992;8.518;2023-07-28T12:30:10;45.65;;;43.03;;
10452;SDS011;5274;51.992;8.518;2023-07-28T12:32:36;44.10;;;41.40;;
10452;SDS011;5274;51.992;8.518;2023-07-28T12:35:02;43.95;;;41.40;;
10452;SDS011;5274;51.992;8.518;2023-07-28T12:37:28;47.13;;;44.42;;
10452;SDS011;5274;51.992;8.518;2023-07-28T12:39:54;44.65;;;42.05;;
10452;SDS011;5274;51.992;8.518;2023-07-28T12:42:20;44.60;;;42.10;;
10452;SDS011;5274;51.992;8.518;2023-07-28T12:44:46;43.22;;;40.67;;
10452;SDS011;5274;51.992;8.518;2023-07-28T12:47:12;41.13;;;38.80;;
10452;SDS011;5274;51.992;8.518;2023-07-28T12:49:38;41.45;;;38.80;;
10452;SDS011;5274;51.992;8.518;2023-07-28T12:52:05;42.08;;;39.70;;
10452;SDS011;5274;51.992;8.518;2023-07-28T12:54:32;38.00;;;35.90;;
10452;SDS011;5274;51.992;8.518;2023-07-28T12:56:58;34.85;;;33.05;;
10452;SDS011;5274;51.992;8.518;2023-07-28T12:59:24;34.95;;;33.05;;
10452;SDS011;5274;51.992;8.518;2023-07-28T13:01:50;36.50;;;34.55;;
10452;SDS011;5274;51.992;8.518;2023-07-28T13:04:16;36.80;;;34.67;;
10452;SDS011;5274;51.992;8.518;2023-07-28T13:06:42;35.55;;;33.72;;
10452;SDS011;5274;51.992;8.518;2023-07-28T13:09:09;37.63;;;35.30;;
10452;SDS011;5274;51.992;8.518;2023-07-28T13:11:35;36.92;;;35.13;;
10452;SDS011;5274;51.992;8.518;2023-07-28T13:14:01;36.38;;;34.65;;
10452;SDS011;5274;51.992;8.518;2023-07-28T13:16:27;36.03;;;34.33;;
10452;SDS011;5274;51.992;8.518;2023-07-28T13:18:53;36.42;;;34.58;;
10452;SDS011;5274;51.992;8.518;2023-07-28T13:21:19;34.67;;;32.88;;
10452;SDS011;5274;51.992;8.518;2023-07-28T13:23:44;34.72;;;32.92;;
10452;SDS011;5274;51.992;8.518;2023-07-28T13:26:10;33.75;;;31.63;;
10452;SDS011;5274;51.992;8.518;2023-07-28T13:28:36;32.75;;;31.15;;
10452;SDS011;5274;51.992;8.518;2023-07-28T13:31:02;33.58;;;31.88;;
10452;SDS011;5274;51.992;8.518;2023-07-28T13:33:29;34.17;;;32.47;;
10452;SDS011;5274;51.992;8.518;2023-07-28T13:35:55;34.17;;;32.35;;
10452;SDS011;5274;51.992;8.518;2023-07-28T13:38:21;32.88;;;31.27;;
10452;SDS011;5274;51.992;8.518;2023-07-28T13:40:47;41.17;;;38.78;;
10452;SDS011;5274;51.992;8.518;2023-07-28T13:43:13;43.75;;;41.15;;
10452;SDS011;5274;51.992;8.518;2023-07-28T13:45:39;44.42;;;41.72;;
10452;SDS011;5274;51.992;8.518;2023-07-28T13:48:05;42.50;;;40.00;;
10452;SDS011;5274;51.992;8.518;2023-07-28T13:50:31;43.63;;;41.03;;
10452;SDS011;5274;51.992;8.518;2023-07-28T13:52:57;45.35;;;42.55;;
10452;SDS011;5274;51.992;8.518;2023-07-28T13:55:23;46.90;;;44.10;;
10452;SDS011;5274;51.992;8.518;2023-07-28T13:57:48;47.95;;;44.83;;
10452;SDS011;5274;51.992;8.518;2023-07-28T14:00:14;48.33;;;45.30;;
10452;SDS011;5274;51.992;8.518;2023-07-28T14:02:40;47.40;;;44.50;;
10452;SDS011;5274;51.992;8.518;2023-07-28T14:05:07;47.60;;;44.60;;
10452;SDS011;5274;51.992;8.518;2023-07-28T14:07:33;47.80;;;44.67;;
10452;SDS011;5274;51.992;8.518;2023-07-28T14:09:59;45.10;;;42.40;;
10452;SDS011;5274;51.992;8.518;2023-07-28T14:12:25;46.53;;;43.50;;
10452;SDS011;5274;51.992;8.518;2023-07-28T14:14:51;46.92;;;43.78;;
10452;SDS011;5274;51.992;8.518;2023-07-28T14:17:17;46.40;;;43.70;;
10452;SDS011;5274;51.992;8.518;2023-07-28T14:19:43;47.88;;;44.92;;
10452;SDS011;5274;51.992;8.518;2023-07-28T14:22:09;45.90;;;43.10;;
10452;SDS011;5274;51.992;8.518;2023-07-28T14:24:35;48.45;;;45.65;;
10452;SDS011;5274;51.992;8.518;2023-07-28T14:27:01;46.97;;;44.28;;
10452;SDS011;5274;51.992;8.518;2023-07-28T14:29:27;47.45;;;44.65;;
10452;SDS011;5274;51.992;8.518;2023-07-28T14:31:53;49.08;;;46.28;;